sensor_id;sensor_type;location;lat;lon;timestamp;pressure;altitude;pressure_sealevel;temperature;humidity
64698;BME280;51124;53.394;-6.294;2023-10-08T00:01:18;101448.13;;;20.39;12.52
64698;BME280;51124;53.394;-6.294;2023-10-08T00:03:46;101450.78;;;20.59;12.60
64698;BME280;51124;53.394;-6.294;2023-10-08T00:06:13;101451.58;;;20.56;12.45
64698;BME280;51124;53.394;-6.294;2023-10-08T00:08:41;101454.09;;;20.53;12.35
64698;BME280;51124;53.394;-6.294;2023-10-08T00:11:08;101452.62;;;21.50;12.18
64698;BME280;51124;53.394;-6.294;2023-10-08T00:13:36;101452.98;;;20.78;12.15
64698;BME280;51124;53.394;-6.294;2023-10-08T00:16:04;101455.21;;;20.64;12.19
64698;BME280;51124;53.394;-6.294;2023-10-08T00:18:32;101462.24;;;21.24;12.06
64698;BME280;51124;53.394;-6.294;2023-10-08T00:20:59;101461.16;;;20.54;12.19
64698;BME280;51124;53.394;-6.294;2023-10-08T00:23:26;101461.32;;;21.18;12.00
64698;BME280;51124;53.394;-6.294;2023-10-08T00:25:54;101465.13;;;21.60;11.91
64698;BME280;51124;53.394;-6.294;2023-10-08T00:28:21;101470.89;;;21.20;12.06
64698;BME280;51124;53.394;-6.294;2023-10-08T00:30:49;101470.68;;;20.85;12.05
64698;BME280;51124;53.394;-6.294;2023-10-08T00:33:16;101476.13;;;21.35;11.85
64698;BME280;51124;53.394;-6.294;2023-10-08T00:35:44;101472.51;;;21.23;12.01
64698;BME280;51124;53.394;-6.294;2023-10-08T00:38:11;101470.27;;;20.81;12.03
64698;BME280;51124;53.394;-6.294;2023-10-08T00:40:39;101477.14;;;21.35;11.95
64698;BME280;51124;53.394;-6.294;2023-10-08T00:43:06;101473.68;;;20.96;12.02
64698;BME280;51124;53.394;-6.294;2023-10-08T00:45:34;101473.57;;;20.92;11.91
64698;BME280;51124;53.394;-6.294;2023-10-08T00:48:01;101473.91;;;21.42;11.87
64698;BME280;51124;53.394;-6.294;2023-10-08T00:50:28;101470.33;;;21.66;11.77
64698;BME280;51124;53.394;-6.294;2023-10-08T00:52:56;101476.12;;;20.75;11.88
64698;BME280;51124;53.394;-6.294;2023-10-08T00:55:24;101472.04;;;20.91;11.89
64698;BME280;51124;53.394;-6.294;2023-10-08T00:57:56;101468.17;;;21.50;11.93
64698;BME280;51124;53.394;-6.294;2023-10-08T01:00:24;101463.06;;;20.74;11.86
64698;BME280;51124;53.394;-6.294;2023-10-08T01:02:51;101460.39;;;22.07;11.86
64698;BME280;51124;53.394;-6.294;2023-10-08T01:05:19;101463.03;;;20.93;12.07
64698;BME280;51124;53.394;-6.294;2023-10-08T01:07:47;101467.25;;;20.92;11.79
64698;BME280;51124;53.394;-6.294;2023-10-08T01:10:15;101470.21;;;21.78;11.73
64698;BME280;51124;53.394;-6.294;2023-10-08T01:12:42;101476.29;;;22.23;11.65
64698;BME280;51124;53.394;-6.294;2023-10-08T01:15:10;101471.10;;;22.26;11.80
64698;BME280;51124;53.394;-6.294;2023-10-08T01:17:38;101467.81;;;21.26;11.80
64698;BME280;51124;53.394;-6.294;2023-10-08T01:20:06;101468.82;;;21.59;11.82
64698;BME280;51124;53.394;-6.294;2023-10-08T01:22:33;101466.28;;;21.97;11.67
64698;BME280;51124;53.394;-6.294;2023-10-08T01:25:01;101466.96;;;21.28;11.66
64698;BME280;51124;53.394;-6.294;2023-10-08T01:27:31;101463.24;;;21.34;11.75
64698;BME280;51124;53.394;-6.294;2023-10-08T01:29:59;101460.14;;;21.30;11.64
64698;BME280;51124;53.394;-6.294;2023-10-08T01:32:27;101457.88;;;23.48;11.84
64698;BME280;51124;53.394;-6.294;2023-10-08T01:34:54;101459.61;;;23.53;12.32
64698;BME280;51124;53.394;-6.294;2023-10-08T01:37:22;101462.33;;;21.97;12.56
64698;BME280;51124;53.394;-6.294;2023-10-08T01:39:49;101466.31;;;21.93;12.45
64698;BME280;51124;53.394;-6.294;2023-10-08T01:42:17;101468.44;;;25.02;12.91
64698;BME280;51124;53.394;-6.294;2023-10-08T01:44:46;101473.02;;;24.44;13.44
64698;BME280;51124;53.394;-6.294;2023-10-08T01:47:14;101475.04;;;24.31;13.83
64698;BME280;51124;53.394;-6.294;2023-10-08T01:49:41;101474.10;;;23.62;13.99
64698;BME280;51124;53.394;-6.294;2023-10-08T01:52:09;101474.75;;;23.76;14.21
64698;BME280;51124;53.394;-6.294;2023-10-08T01:54:37;101475.11;;;23.78;14.22
64698;BME280;51124;53.394;-6.294;2023-10-08T01:57:05;101476.03;;;23.72;14.43
64698;BME280;51124;53.394;-6.294;2023-10-08T01:59:33;101471.33;;;23.42;14.51
64698;BME280;51124;53.394;-6.294;2023-10-08T02:02:00;101470.93;;;23.08;14.51
64698;BME280;51124;53.394;-6.294;2023-10-08T02:04:27;101467.19;;;23.17;14.66
64698;BME280;51124;53.394;-6.294;2023-10-08T02:06:55;101467.09;;;23.49;14.58
64698;BME280;51124;53.394;-6.294;2023-10-08T02:09:23;101464.51;;;23.81;14.64
64698;BME280;51124;53.394;-6.294;2023-10-08T02:11:51;101466.77;;;23.40;14.67
64698;BME280;51124;53.394;-6.294;2023-10-08T02:14:19;101466.68;;;23.21;14.67
64698;BME280;51124;53.394;-6.294;2023-10-08T02:16:47;101464.16;;;23.29;14.79
64698;BME280;51124;53.394;-6.294;2023-10-08T02:19:15;101457.69;;;23.59;14.77
64698;BME280;51124;53.394;-6.294;2023-10-08T02:21:43;101454.88;;;23.76;14.66
64698;BME280;51124;53.394;-6.294;2023-10-08T02:24:10;101462.52;;;23.36;14.67
64698;BME280;51124;53.394;-6.294;2023-10-08T02:26:38;101471.76;;;22.91;14.75
64698;BME280;51124;53.394;-6.294;2023-10-08T02:29:07;101479.18;;;23.27;14.82
64698;BME280;51124;53.394;-6.294;2023-10-08T02:31:34;101475.13;;;21.51;14.78
64698;BME280;51124;53.394;-6.294;2023-10-08T02:34:02;101463.88;;;20.93;14.27
64698;BME280;51124;53.394;-6.294;2023-10-08T02:36:29;101476.01;;;21.01;13.83
64698;BME280;51124;53.394;-6.294;2023-10-08T02:38:57;101477.31;;;20.94;13.41
64698;BME280;51124;53.394;-6.294;2023-10-08T02:41:24;101473.64;;;21.99;13.19
64698;BME280;51124;53.394;-6.294;2023-10-08T02:43:51;101474.14;;;20.85;12.99
64698;BME280;51124;53.394;-6.294;2023-10-08T02:46:19;101472.76;;;21.56;12.71
64698;BME280;51124;53.394;-6.294;2023-10-08T02:48:46;101469.84;;;21.66;12.57
64698;BME280;51124;53.394;-6.294;2023-10-08T02:51:13;101464.44;;;21.09;12.51
64698;BME280;51124;53.394;-6.294;2023-10-08T02:53:41;101462.20;;;21.17;12.36
64698;BME280;51124;53.394;-6.294;2023-10-08T02:56:08;101453.45;;;21.51;12.26
64698;BME280;51124;53.394;-6.294;2023-10-08T02:58:35;101454.60;;;21.45;12.20
64698;BME280;51124;53.394;-6.294;2023-10-08T03:01:03;101451.48;;;21.17;12.26
64698;BME280;51124;53.394;-6.294;2023-10-08T03:03:30;101446.67;;;21.07;12.27
64698;BME280;51124;53.394;-6.294;2023-10-08T03:05:57;101438.23;;;21.06;12.08
64698;BME280;51124;53.394;-6.294;2023-10-08T03:08:25;101434.03;;;21.58;12.08
64698;BME280;51124;53.394;-6.294;2023-10-08T03:10:53;101426.00;;;21.19;11.96
64698;BME280;51124;53.394;-6.294;2023-10-08T03:13:21;101422.78;;;19.88;11.63
64698;BME280;51124;53.394;-6.294;2023-10-08T03:15:49;101425.18;;;19.06;11.21
64698;BME280;51124;53.394;-6.294;2023-10-08T03:18:16;101419.46;;;21.97;11.16
64698;BME280;51124;53.394;-6.294;2023-10-08T03:20:43;101419.21;;;22.07;11.32
64698;BME280;51124;53.394;-6.294;2023-10-08T03:23:12;101417.19;;;21.64;11.54
64698;BME280;51124;53.394;-6.294;2023-10-08T03:25:39;101421.49;;;21.72;11.74
64698;BME280;51124;53.394;-6.294;2023-10-08T03:28:07;101427.68;;;21.56;11.69
64698;BME280;51124;53.394;-6.294;2023-10-08T03:30:35;101424.12;;;21.11;11.58
64698;BME280;51124;53.394;-6.294;2023-10-08T03:33:02;101410.91;;;21.83;11.61
64698;BME280;51124;53.394;-6.294;2023-10-08T03:35:30;101411.61;;;22.04;11.51
64698;BME280;51124;53.394;-6.294;2023-10-08T03:37:58;101403.31;;;21.14;11.61
64698;BME280;51124;53.394;-6.294;2023-10-08T03:40:25;101407.08;;;21.76;11.61
64698;BME280;51124;53.394;-6.294;2023-10-08T03:42:55;101408.67;;;21.58;11.61
64698;BME280;51124;53.394;-6.294;2023-10-08T03:45:22;101411.08;;;22.54;11.58
64698;BME280;51124;53.394;-6.294;2023-10-08T03:47:50;101418.29;;;21.44;11.75
64698;BME280;51124;53.394;-6.294;2023-10-08T03:50:17;101412.42;;;21.16;11.66
64698;BME280;51124;53.394;-6.294;2023-10-08T03:52:45;101412.81;;;21.84;11.59
64698;BME280;51124;53.394;-6.294;2023-10-08T03:55:12;101416.19;;;21.45;11.73
64698;BME280;51124;53.394;-6.294;2023-10-08T03:57:40;101412.93;;;21.72;11.56
64698;BME280;51124;53.394;-6.294;2023-10-08T04:00:08;101402.20;;;21.71;11.78
64698;BME280;51124;53.394;-6.294;2023-10-08T04:02:36;101390.31;;;21.48;11.65
64698;BME280;51124;53.394;-6.294;2023-10-08T04:05:04;101389.00;;;20.92;11.74
64698;BME280;51124;53.394;-6.294;2023-10-08T04:07:31;101387.27;;;21.92;11.74
64698;BME280;51124;53.394;-6.294;2023-10-08T04:10:00;101383.98;;;21.97;11.71
64698;BME280;51124;53.394;-6.294;2023-10-08T04:12:27;101385.95;;;22.06;11.83
64698;BME280;51124;53.394;-6.294;2023-10-08T04:14:55;101384.12;;;21.92;11.89
64698;BME280;51124;53.394;-6.294;2023-10-08T04:17:22;101377.08;;;21.47;11.87
64698;BME280;51124;53.394;-6.294;2023-10-08T04:19:50;101385.26;;;21.10;11.85
64698;BME280;51124;53.394;-6.294;2023-10-08T04:22:17;101384.24;;;20.83;11.80
64698;BME280;51124;53.394;-6.294;2023-10-08T04:24:44;101390.32;;;21.21;11.72
64698;BME280;51124;53.394;-6.294;2023-10-08T04:27:12;101392.73;;;21.03;11.72
64698;BME280;51124;53.394;-6.294;2023-10-08T04:29:40;101399.46;;;23.63;11.86
64698;BME280;51124;53.394;-6.294;2023-10-08T04:32:07;101397.86;;;22.55;12.36
64698;BME280;51124;53.394;-6.294;2023-10-08T04:34:35;101397.43;;;21.62;12.43
64698;BME280;51124;53.394;-6.294;2023-10-08T04:37:02;101384.71;;;24.19;12.44
64698;BME280;51124;53.394;-6.294;2023-10-08T04:39:30;101388.86;;;23.90;13.13
64698;BME280;51124;53.394;-6.294;2023-10-08T04:41:58;101397.24;;;24.05;13.58
64698;BME280;51124;53.394;-6.294;2023-10-08T04:44:25;101398.25;;;23.71;13.93
64698;BME280;51124;53.394;-6.294;2023-10-08T04:46:53;101398.34;;;23.59;13.99
64698;BME280;51124;53.394;-6.294;2023-10-08T04:49:21;101404.29;;;23.44;14.21
64698;BME280;51124;53.394;-6.294;2023-10-08T04:51:49;101401.06;;;23.33;14.22
64698;BME280;51124;53.394;-6.294;2023-10-08T04:54:16;101406.69;;;23.22;14.28
64698;BME280;51124;53.394;-6.294;2023-10-08T04:56:44;101402.63;;;22.87;14.33
64698;BME280;51124;53.394;-6.294;2023-10-08T04:59:12;101409.76;;;23.06;14.44
64698;BME280;51124;53.394;-6.294;2023-10-08T05:01:40;101409.37;;;22.83;14.56
64698;BME280;51124;53.394;-6.294;2023-10-08T05:04:07;101414.09;;;22.91;14.63
64698;BME280;51124;53.394;-6.294;2023-10-08T05:06:35;101408.23;;;23.56;14.48
64698;BME280;51124;53.394;-6.294;2023-10-08T05:09:04;101411.29;;;23.19;14.70
64698;BME280;51124;53.394;-6.294;2023-10-08T05:11:32;101410.21;;;22.96;14.53
64698;BME280;51124;53.394;-6.294;2023-10-08T05:13:59;101416.95;;;22.50;14.66
64698;BME280;51124;53.394;-6.294;2023-10-08T05:16:27;101420.65;;;22.68;14.61
64698;BME280;51124;53.394;-6.294;2023-10-08T05:18:54;101426.60;;;23.15;14.52
64698;BME280;51124;53.394;-6.294;2023-10-08T05:21:22;101423.15;;;23.13;14.55
64698;BME280;51124;53.394;-6.294;2023-10-08T05:23:49;101421.80;;;22.81;14.64
64698;BME280;51124;53.394;-6.294;2023-10-08T05:26:17;101421.82;;;22.84;14.57
64698;BME280;51124;53.394;-6.294;2023-10-08T05:28:44;101425.98;;;20.89;14.43
64698;BME280;51124;53.394;-6.294;2023-10-08T05:31:11;101419.03;;;20.34;13.88
64698;BME280;51124;53.394;-6.294;2023-10-08T05:33:39;101415.28;;;20.72;13.45
64698;BME280;51124;53.394;-6.294;2023-10-08T05:36:06;101414.04;;;20.78;13.18
64698;BME280;51124;53.394;-6.294;2023-10-08T05:38:34;101422.51;;;21.36;12.85
64698;BME280;51124;53.394;-6.294;2023-10-08T05:41:01;101426.22;;;20.46;12.84
64698;BME280;51124;53.394;-6.294;2023-10-08T05:43:30;101429.38;;;21.32;12.50
64698;BME280;51124;53.394;-6.294;2023-10-08T05:45:58;101424.85;;;21.01;12.35
64698;BME280;51124;53.394;-6.294;2023-10-08T05:48:25;101419.41;;;21.25;12.28
64698;BME280;51124;53.394;-6.294;2023-10-08T05:50:52;101416.24;;;21.38;12.12
64698;BME280;51124;53.394;-6.294;2023-10-08T05:53:20;101414.76;;;21.49;12.08
64698;BME280;51124;53.394;-6.294;2023-10-08T05:55:47;101421.71;;;21.42;12.06
64698;BME280;51124;53.394;-6.294;2023-10-08T05:58:15;101411.20;;;21.50;12.02
64698;BME280;51124;53.394;-6.294;2023-10-08T06:00:43;101407.42;;;20.90;12.11
64698;BME280;51124;53.394;-6.294;2023-10-08T06:03:10;101404.44;;;21.22;11.94
64698;BME280;51124;53.394;-6.294;2023-10-08T06:05:38;101400.90;;;21.48;11.92
64698;BME280;51124;53.394;-6.294;2023-10-08T06:08:06;101398.47;;;20.19;12.03
64698;BME280;51124;53.394;-6.294;2023-10-08T06:10:34;101402.94;;;21.07;11.88
64698;BME280;51124;53.394;-6.294;2023-10-08T06:13:05;101403.58;;;20.83;11.93
64698;BME280;51124;53.394;-6.294;2023-10-08T06:15:37;101409.80;;;20.69;11.81
64698;BME280;51124;53.394;-6.294;2023-10-08T06:18:05;101419.04;;;20.82;11.81
64698;BME280;51124;53.394;-6.294;2023-10-08T06:20:34;101428.61;;;20.47;11.87
64698;BME280;51124;53.394;-6.294;2023-10-08T06:23:01;101424.03;;;21.25;11.66
64698;BME280;51124;53.394;-6.294;2023-10-08T06:25:29;101408.16;;;20.36;11.98
64698;BME280;51124;53.394;-6.294;2023-10-08T06:27:56;101402.44;;;20.69;11.64
64698;BME280;51124;53.394;-6.294;2023-10-08T06:30:24;101411.37;;;20.78;11.75
64698;BME280;51124;53.394;-6.294;2023-10-08T06:32:51;101402.94;;;21.37;11.65
64698;BME280;51124;53.394;-6.294;2023-10-08T06:35:19;101401.52;;;21.05;11.78
64698;BME280;51124;53.394;-6.294;2023-10-08T06:37:47;101418.20;;;21.67;11.61
64698;BME280;51124;53.394;-6.294;2023-10-08T06:40:14;101418.28;;;20.25;11.86
64698;BME280;51124;53.394;-6.294;2023-10-08T06:42:42;101408.57;;;21.08;11.58
64698;BME280;51124;53.394;-6.294;2023-10-08T06:45:10;101405.04;;;21.06;11.49
64698;BME280;51124;53.394;-6.294;2023-10-08T06:47:37;101419.06;;;21.12;11.65
64698;BME280;51124;53.394;-6.294;2023-10-08T06:50:05;101418.75;;;20.31;11.68
64698;BME280;51124;53.394;-6.294;2023-10-08T06:52:33;101422.96;;;21.10;11.61
64698;BME280;51124;53.394;-6.294;2023-10-08T06:55:00;101429.00;;;21.10;11.52
64698;BME280;51124;53.394;-6.294;2023-10-08T06:57:27;101425.52;;;21.02;11.67
64698;BME280;51124;53.394;-6.294;2023-10-08T06:59:55;101424.54;;;21.48;11.84
64698;BME280;51124;53.394;-6.294;2023-10-08T07:02:22;101421.46;;;20.34;12.55
64698;BME280;51124;53.394;-6.294;2023-10-08T07:04:49;101419.02;;;21.61;12.14
64698;BME280;51124;53.394;-6.294;2023-10-08T07:07:16;101429.40;;;21.24;12.06
64698;BME280;51124;53.394;-6.294;2023-10-08T07:09:44;101430.97;;;21.50;11.87
64698;BME280;51124;53.394;-6.294;2023-10-08T07:12:11;101421.78;;;22.01;11.73
64698;BME280;51124;53.394;-6.294;2023-10-08T07:14:39;101420.15;;;21.92;11.79
64698;BME280;51124;53.394;-6.294;2023-10-08T07:17:06;101416.86;;;21.27;11.73
64698;BME280;51124;53.394;-6.294;2023-10-08T07:19:34;101430.84;;;21.57;11.65
64698;BME280;51124;53.394;-6.294;2023-10-08T07:22:01;101443.44;;;21.64;11.67
64698;BME280;51124;53.394;-6.294;2023-10-08T07:24:29;101443.75;;;21.55;11.69
64698;BME280;51124;53.394;-6.294;2023-10-08T07:26:56;101449.34;;;22.65;11.69
64698;BME280;51124;53.394;-6.294;2023-10-08T07:29:24;101449.55;;;23.47;12.19
64698;BME280;51124;53.394;-6.294;2023-10-08T07:31:51;101451.51;;;22.80;12.51
64698;BME280;51124;53.394;-6.294;2023-10-08T07:34:19;101453.97;;;21.53;12.49
64698;BME280;51124;53.394;-6.294;2023-10-08T07:36:48;101453.22;;;24.34;12.75
64698;BME280;51124;53.394;-6.294;2023-10-08T07:39:16;101455.45;;;24.09;13.38
64698;BME280;51124;53.394;-6.294;2023-10-08T07:41:44;101463.43;;;24.44;13.76
64698;BME280;51124;53.394;-6.294;2023-10-08T07:44:12;101471.22;;;24.11;13.98
64698;BME280;51124;53.394;-6.294;2023-10-08T07:46:39;101464.24;;;23.74;14.11
64698;BME280;51124;53.394;-6.294;2023-10-08T07:49:07;101463.15;;;23.23;14.41
64698;BME280;51124;53.394;-6.294;2023-10-08T07:51:34;101461.17;;;23.29;14.50
64698;BME280;51124;53.394;-6.294;2023-10-08T07:54:02;101458.13;;;23.20;14.70
64698;BME280;51124;53.394;-6.294;2023-10-08T07:56:30;101462.53;;;23.04;14.63
64698;BME280;51124;53.394;-6.294;2023-10-08T07:58:57;101468.59;;;23.15;14.78
64698;BME280;51124;53.394;-6.294;2023-10-08T08:01:26;101467.66;;;23.39;15.13
64698;BME280;51124;53.394;-6.294;2023-10-08T08:03:53;101461.20;;;23.54;15.11
64698;BME280;51124;53.394;-6.294;2023-10-08T08:06:21;101461.32;;;23.04;15.10
64698;BME280;51124;53.394;-6.294;2023-10-08T08:08:48;101465.79;;;22.53;15.35
64698;BME280;51124;53.394;-6.294;2023-10-08T08:11:16;101470.63;;;23.45;15.17
64698;BME280;51124;53.394;-6.294;2023-10-08T08:13:44;101477.24;;;23.38;15.14
64698;BME280;51124;53.394;-6.294;2023-10-08T08:16:13;101482.36;;;23.39;15.03
64698;BME280;51124;53.394;-6.294;2023-10-08T08:18:41;101491.02;;;23.14;15.11
64698;BME280;51124;53.394;-6.294;2023-10-08T08:21:11;101499.43;;;22.96;15.10
64698;BME280;51124;53.394;-6.294;2023-10-08T08:23:40;101501.64;;;22.83;15.11
64698;BME280;51124;53.394;-6.294;2023-10-08T08:26:07;101502.59;;;22.51;15.05
64698;BME280;51124;53.394;-6.294;2023-10-08T08:28:35;101507.97;;;20.80;14.83
64698;BME280;51124;53.394;-6.294;2023-10-08T08:31:06;101513.54;;;21.28;14.12
64698;BME280;51124;53.394;-6.294;2023-10-08T08:33:33;101508.48;;;20.80;13.73
64698;BME280;51124;53.394;-6.294;2023-10-08T08:36:01;101511.32;;;21.17;13.46
64698;BME280;51124;53.394;-6.294;2023-10-08T08:38:29;101519.85;;;21.42;13.46
64698;BME280;51124;53.394;-6.294;2023-10-08T08:41:03;101522.89;;;20.65;13.16
64698;BME280;51124;53.394;-6.294;2023-10-08T08:43:30;101522.51;;;21.88;12.81
64698;BME280;51124;53.394;-6.294;2023-10-08T08:45:58;101523.74;;;21.37;12.77
64698;BME280;51124;53.394;-6.294;2023-10-08T08:48:27;101532.31;;;21.35;12.61
64698;BME280;51124;53.394;-6.294;2023-10-08T08:50:55;101538.77;;;20.92;12.73
64698;BME280;51124;53.394;-6.294;2023-10-08T08:53:22;101545.01;;;21.66;12.56
64698;BME280;51124;53.394;-6.294;2023-10-08T08:55:50;101550.88;;;21.02;12.55
64698;BME280;51124;53.394;-6.294;2023-10-08T08:58:18;101551.69;;;21.21;12.35
64698;BME280;51124;53.394;-6.294;2023-10-08T09:00:48;101555.09;;;21.08;12.40
64698;BME280;51124;53.394;-6.294;2023-10-08T09:03:18;101557.97;;;20.63;12.32
64698;BME280;51124;53.394;-6.294;2023-10-08T09:05:45;101560.24;;;21.04;12.33
64698;BME280;51124;53.394;-6.294;2023-10-08T09:08:13;101562.58;;;21.53;11.86
64698;BME280;51124;53.394;-6.294;2023-10-08T09:10:40;101568.57;;;20.96;11.62
64698;BME280;51124;53.394;-6.294;2023-10-08T09:13:09;101572.09;;;20.62;11.54
64698;BME280;51124;53.394;-6.294;2023-10-08T09:15:37;101573.14;;;21.00;11.58
64698;BME280;51124;53.394;-6.294;2023-10-08T09:18:06;101568.28;;;21.67;11.34
64698;BME280;51124;53.394;-6.294;2023-10-08T09:20:38;101567.36;;;21.28;11.39
64698;BME280;51124;53.394;-6.294;2023-10-08T09:23:10;101566.65;;;21.68;11.26
64698;BME280;51124;53.394;-6.294;2023-10-08T09:25:44;101567.06;;;21.45;11.36
64698;BME280;51124;53.394;-6.294;2023-10-08T09:28:12;101570.29;;;22.12;11.33
64698;BME280;51124;53.394;-6.294;2023-10-08T09:30:39;101573.91;;;22.12;11.27
64698;BME280;51124;53.394;-6.294;2023-10-08T09:33:08;101574.91;;;21.78;11.38
64698;BME280;51124;53.394;-6.294;2023-10-08T09:35:35;101573.10;;;21.53;11.44
64698;BME280;51124;53.394;-6.294;2023-10-08T09:38:05;101573.00;;;21.42;11.55
64698;BME280;51124;53.394;-6.294;2023-10-08T09:40:33;101572.73;;;22.44;11.38
64698;BME280;51124;53.394;-6.294;2023-10-08T09:43:01;101570.63;;;22.24;11.36
64698;BME280;51124;53.394;-6.294;2023-10-08T09:45:28;101569.08;;;22.63;11.29
64698;BME280;51124;53.394;-6.294;2023-10-08T09:47:57;101561.01;;;21.09;11.68
64698;BME280;51124;53.394;-6.294;2023-10-08T09:50:31;101557.85;;;20.97;11.84
64698;BME280;51124;53.394;-6.294;2023-10-08T09:53:05;101555.24;;;21.07;11.75
64698;BME280;51124;53.394;-6.294;2023-10-08T09:55:25;101536.95;;;21.23;11.53
64698;BME280;51124;53.394;-6.294;2023-10-08T09:57:54;101513.52;;;21.31;11.64
64698;BME280;51124;53.394;-6.294;2023-10-08T10:00:21;101511.14;;;22.58;11.59
64698;BME280;51124;53.394;-6.294;2023-10-08T10:02:50;101500.21;;;22.31;11.46
64698;BME280;51124;53.394;-6.294;2023-10-08T10:05:21;101474.51;;;20.95;11.74
64698;BME280;51124;53.394;-6.294;2023-10-08T10:07:50;101473.91;;;21.29;11.74
64698;BME280;51124;53.394;-6.294;2023-10-08T10:10:27;101475.07;;;21.67;11.61
64698;BME280;51124;53.394;-6.294;2023-10-08T10:12:45;101468.52;;;21.95;11.63
64698;BME280;51124;53.394;-6.294;2023-10-08T10:15:13;101473.10;;;22.23;11.55
64698;BME280;51124;53.394;-6.294;2023-10-08T10:17:40;101469.70;;;21.88;11.48
64698;BME280;51124;53.394;-6.294;2023-10-08T10:20:08;101470.14;;;21.54;11.44
64698;BME280;51124;53.394;-6.294;2023-10-08T10:22:37;101465.50;;;21.50;11.36
64698;BME280;51124;53.394;-6.294;2023-10-08T10:25:05;101458.20;;;21.94;11.26
64698;BME280;51124;53.394;-6.294;2023-10-08T10:27:34;101457.01;;;21.81;11.40
64698;BME280;51124;53.394;-6.294;2023-10-08T10:30:05;101457.30;;;25.30;11.26
64698;BME280;51124;53.394;-6.294;2023-10-08T10:32:32;101460.60;;;24.35;11.91
64698;BME280;51124;53.394;-6.294;2023-10-08T10:35:00;101453.90;;;23.04;11.94
64698;BME280;51124;53.394;-6.294;2023-10-08T10:37:27;101454.10;;;22.58;12.04
64698;BME280;51124;53.394;-6.294;2023-10-08T10:39:56;101447.79;;;26.21;12.28
64698;BME280;51124;53.394;-6.294;2023-10-08T10:42:24;101437.86;;;25.25;12.75
64698;BME280;51124;53.394;-6.294;2023-10-08T10:44:52;101436.82;;;25.84;12.97
64698;BME280;51124;53.394;-6.294;2023-10-08T10:47:20;101435.04;;;24.95;13.45
64698;BME280;51124;53.394;-6.294;2023-10-08T10:49:49;101434.38;;;25.24;13.52
64698;BME280;51124;53.394;-6.294;2023-10-08T10:52:17;101436.31;;;24.18;13.79
64698;BME280;51124;53.394;-6.294;2023-10-08T10:54:45;101436.75;;;24.59;13.68
64698;BME280;51124;53.394;-6.294;2023-10-08T10:57:13;101432.23;;;24.86;13.62
64698;BME280;51124;53.394;-6.294;2023-10-08T10:59:40;101424.96;;;24.51;13.52
64698;BME280;51124;53.394;-6.294;2023-10-08T11:02:08;101427.26;;;23.80;13.90
64698;BME280;51124;53.394;-6.294;2023-10-08T11:04:36;101420.14;;;25.37;13.50
64698;BME280;51124;53.394;-6.294;2023-10-08T11:07:06;101437.82;;;24.49;14.00
64698;BME280;51124;53.394;-6.294;2023-10-08T11:09:34;101449.16;;;23.69;14.03
64698;BME280;51124;53.394;-6.294;2023-10-08T11:12:01;101443.17;;;23.80;13.71
64698;BME280;51124;53.394;-6.294;2023-10-08T11:14:29;101444.93;;;23.85;13.78
64698;BME280;51124;53.394;-6.294;2023-10-08T11:16:57;101448.86;;;24.55;13.59
64698;BME280;51124;53.394;-6.294;2023-10-08T11:19:25;101459.61;;;23.02;14.13
64698;BME280;51124;53.394;-6.294;2023-10-08T11:21:53;101460.14;;;24.28;13.67
64698;BME280;51124;53.394;-6.294;2023-10-08T11:24:36;101466.46;;;23.89;13.71
64698;BME280;51124;53.394;-6.294;2023-10-08T11:26:54;101476.47;;;24.47;12.85
64698;BME280;51124;53.394;-6.294;2023-10-08T11:29:22;101500.24;;;23.17;13.44
64698;BME280;51124;53.394;-6.294;2023-10-08T11:31:49;101534.19;;;22.65;12.86
64698;BME280;51124;53.394;-6.294;2023-10-08T11:34:16;101550.50;;;22.94;12.37
64698;BME280;51124;53.394;-6.294;2023-10-08T11:36:44;101555.70;;;22.72;12.07
64698;BME280;51124;53.394;-6.294;2023-10-08T11:39:12;101554.62;;;23.27;11.93
64698;BME280;51124;53.394;-6.294;2023-10-08T11:41:39;101557.13;;;23.49;11.91
64698;BME280;51124;53.394;-6.294;2023-10-08T11:44:07;101575.54;;;21.96;12.03
64698;BME280;51124;53.394;-6.294;2023-10-08T11:46:34;101551.05;;;22.98;11.63
64698;BME280;51124;53.394;-6.294;2023-10-08T11:49:02;101549.08;;;23.05;11.36
64698;BME280;51124;53.394;-6.294;2023-10-08T11:51:30;101540.96;;;22.79;11.31
64698;BME280;51124;53.394;-6.294;2023-10-08T11:53:58;101540.31;;;22.76;11.37
64698;BME280;51124;53.394;-6.294;2023-10-08T11:56:26;101537.80;;;22.94;11.34
64698;BME280;51124;53.394;-6.294;2023-10-08T11:58:53;101542.47;;;23.24;11.25
64698;BME280;51124;53.394;-6.294;2023-10-08T12:01:21;101539.66;;;22.76;11.37
64698;BME280;51124;53.394;-6.294;2023-10-08T12:03:48;101537.68;;;22.96;11.05
64698;BME280;51124;53.394;-6.294;2023-10-08T12:06:16;101535.98;;;23.04;10.94
64698;BME280;51124;53.394;-6.294;2023-10-08T12:08:44;101530.31;;;22.80;10.94
64698;BME280;51124;53.394;-6.294;2023-10-08T12:11:13;101525.68;;;23.17;10.89
64698;BME280;51124;53.394;-6.294;2023-10-08T12:13:40;101524.29;;;22.54;10.80
64698;BME280;51124;53.394;-6.294;2023-10-08T12:16:08;101518.36;;;22.61;10.78
64698;BME280;51124;53.394;-6.294;2023-10-08T12:18:36;101515.02;;;22.61;10.90
64698;BME280;51124;53.394;-6.294;2023-10-08T12:21:04;101510.24;;;22.63;10.80
64698;BME280;51124;53.394;-6.294;2023-10-08T12:23:32;101505.29;;;23.08;10.68
64698;BME280;51124;53.394;-6.294;2023-10-08T12:25:59;101506.06;;;23.04;10.69
64698;BME280;51124;53.394;-6.294;2023-10-08T12:28:27;101510.18;;;22.78;10.79
64698;BME280;51124;53.394;-6.294;2023-10-08T12:30:55;101506.69;;;22.61;10.67
64698;BME280;51124;53.394;-6.294;2023-10-08T12:33:22;101501.06;;;23.23;10.69
64698;BME280;51124;53.394;-6.294;2023-10-08T12:35:50;101499.96;;;23.87;10.64
64698;BME280;51124;53.394;-6.294;2023-10-08T12:38:18;101502.73;;;22.82;10.69
64698;BME280;51124;53.394;-6.294;2023-10-08T12:40:45;101499.19;;;22.68;10.66
64698;BME280;51124;53.394;-6.294;2023-10-08T12:43:13;101494.97;;;22.49;10.75